sensor_id;sensor_type;location;lat;lon;timestamp;pressure;altitude;pressure_sealevel;temperature
60615;BMP280;46444;45.590;5.284;2023-02-11T00:22:45;100929.50;;;1.58
60615;BMP280;46444;45.590;5.284;2023-02-11T00:25:10;100934.91;;;1.56
60615;BMP280;46444;45.590;5.284;2023-02-11T00:27:36;100926.63;;;1.61
60615;BMP280;46444;45.590;5.284;2023-02-11T00:30:02;100927.34;;;1.63
60615;BMP280;46444;45.590;5.284;2023-02-11T00:32:35;100930.59;;;1.55
60615;BMP280;46444;45.590;5.284;2023-02-11T00:35:01;100937.69;;;1.55
60615;BMP280;46444;45.590;5.284;2023-02-11T00:37:27;100937.28;;;1.59
60615;BMP280;46444;45.590;5.284;2023-02-11T00:39:53;100924.63;;;1.53
60615;BMP280;46444;45.590;5.284;2023-02-11T00:42:18;100933.50;;;1.52
60615;BMP280;46444;45.590;5.284;2023-02-11T00:44:44;100936.13;;;1.52
60615;BMP280;46444;45.590;5.284;2023-02-11T00:47:09;100925.44;;;1.54
60615;BMP280;46444;45.590;5.284;2023-02-11T00:49:35;100915.13;;;1.41
60615;BMP280;46444;45.590;5.284;2023-02-11T00:52:01;100918.84;;;1.39
60615;BMP280;46444;45.590;5.284;2023-02-11T00:54:26;100917.25;;;1.47
60615;BMP280;46444;45.590;5.284;2023-02-11T00:56:52;100927.78;;;1.47
60615;BMP280;46444;45.590;5.284;2023-02-11T00:59:18;100921.06;;;1.43
60615;BMP280;46444;45.590;5.284;2023-02-11T01:01:43;100918.94;;;1.37
60615;BMP280;46444;45.590;5.284;2023-02-11T01:52:02;100892.38;;;1.09
60615;BMP280;46444;45.590;5.284;2023-02-11T01:54:40;100887.94;;;1.09
60615;BMP280;46444;45.590;5.284;2023-02-11T01:58:01;100889.25;;;1.15
60615;BMP280;46444;45.590;5.284;2023-02-11T02:04:38;100885.31;;;1.09
60615;BMP280;46444;45.590;5.284;2023-02-11T02:08:35;100884.16;;;0.91
60615;BMP280;46444;45.590;5.284;2023-02-11T02:12:06;100873.88;;;0.99
60615;BMP280;46444;45.590;5.284;2023-02-11T02:39:05;100854.44;;;0.80
60615;BMP280;46444;45.590;5.284;2023-02-11T02:45:00;100847.13;;;0.83
60615;BMP280;46444;45.590;5.284;2023-02-11T03:10:42;100844.06;;;0.67
60615;BMP280;46444;45.590;5.284;2023-02-11T03:13:11;100847.19;;;0.61
60615;BMP280;46444;45.590;5.284;2023-02-11T03:15:55;100844.53;;;0.61
60615;BMP280;46444;45.590;5.284;2023-02-11T03:24:30;100827.28;;;0.48
60615;BMP280;46444;45.590;5.284;2023-02-11T03:27:19;100834.78;;;0.52
60615;BMP280;46444;45.590;5.284;2023-02-11T03:33:19;100828.66;;;0.52
60615;BMP280;46444;45.590;5.284;2023-02-11T03:36:23;100815.53;;;0.52
60615;BMP280;46444;45.590;5.284;2023-02-11T03:39:18;100810.06;;;0.44
60615;BMP280;46444;45.590;5.284;2023-02-11T03:42:01;100812.09;;;0.40
60615;BMP280;46444;45.590;5.284;2023-02-11T03:45:09;100799.41;;;0.45
60615;BMP280;46444;45.590;5.284;2023-02-11T03:52:00;100801.78;;;0.48
60615;BMP280;46444;45.590;5.284;2023-02-11T03:55:18;100806.06;;;0.49
60615;BMP280;46444;45.590;5.284;2023-02-11T03:57:53;100813.97;;;0.49
60615;BMP280;46444;45.590;5.284;2023-02-11T04:00:36;100809.69;;;0.48
60615;BMP280;46444;45.590;5.284;2023-02-11T04:03:04;100815.31;;;0.44
60615;BMP280;46444;45.590;5.284;2023-02-11T04:06:01;100796.91;;;0.44
60615;BMP280;46444;45.590;5.284;2023-02-11T04:08:58;100814.47;;;0.43
60615;BMP280;46444;45.590;5.284;2023-02-11T04:11:26;100810.53;;;0.38
60615;BMP280;46444;45.590;5.284;2023-02-11T04:14:01;100804.31;;;0.39
60615;BMP280;46444;45.590;5.284;2023-02-11T04:16:36;100805.66;;;0.33
60615;BMP280;46444;45.590;5.284;2023-02-11T04:19:07;100818.56;;;0.36
60615;BMP280;46444;45.590;5.284;2023-02-11T04:22:11;100805.88;;;0.41
60615;BMP280;46444;45.590;5.284;2023-02-11T04:28:45;100810.34;;;0.30
60615;BMP280;46444;45.590;5.284;2023-02-11T04:32:13;100808.78;;;0.27
60615;BMP280;46444;45.590;5.284;2023-02-11T04:35:00;100811.66;;;0.24
60615;BMP280;46444;45.590;5.284;2023-02-11T04:38:10;100823.72;;;0.27
60615;BMP280;46444;45.590;5.284;2023-02-11T04:40:50;100819.91;;;0.31
60615;BMP280;46444;45.590;5.284;2023-02-11T04:44:11;100816.78;;;0.26
60615;BMP280;46444;45.590;5.284;2023-02-11T04:54:31;100828.13;;;0.26
60615;BMP280;46444;45.590;5.284;2023-02-11T04:58:22;100819.44;;;0.15
60615;BMP280;46444;45.590;5.284;2023-02-11T05:01:54;100824.09;;;0.11
60615;BMP280;46444;45.590;5.284;2023-02-11T05:08:46;100808.31;;;0.11
60615;BMP280;46444;45.590;5.284;2023-02-11T05:18:57;100797.09;;;0.09
60615;BMP280;46444;45.590;5.284;2023-02-11T05:21:46;100788.84;;;0.03
60615;BMP280;46444;45.590;5.284;2023-02-11T05:24:20;100797.00;;;0.00
60615;BMP280;46444;45.590;5.284;2023-02-11T05:26:50;100803.78;;;0.02
60615;BMP280;46444;45.590;5.284;2023-02-11T05:29:20;100800.44;;;0.11
60615;BMP280;46444;45.590;5.284;2023-02-11T05:31:48;100795.06;;;0.02
60615;BMP280;46444;45.590;5.284;2023-02-11T05:34:15;100795.19;;;-0.11
60615;BMP280;46444;45.590;5.284;2023-02-11T05:36:43;100794.38;;;0.00
60615;BMP280;46444;45.590;5.284;2023-02-11T05:39:11;100799.00;;;-0.04
60615;BMP280;46444;45.590;5.284;2023-02-11T05:41:58;100792.81;;;-0.03
60615;BMP280;46444;45.590;5.284;2023-02-11T05:45:21;100792.09;;;-0.05
60615;BMP280;46444;45.590;5.284;2023-02-11T05:51:58;100808.81;;;-0.17
60615;BMP280;46444;45.590;5.284;2023-02-11T05:55:30;100802.25;;;-0.11
60615;BMP280;46444;45.590;5.284;2023-02-11T05:58:01;100805.13;;;-0.14
60615;BMP280;46444;45.590;5.284;2023-02-11T06:00:31;100799.75;;;-0.13
60615;BMP280;46444;45.590;5.284;2023-02-11T06:02:58;100803.19;;;-0.12
60615;BMP280;46444;45.590;5.284;2023-02-11T06:05:29;100809.19;;;-0.10
60615;BMP280;46444;45.590;5.284;2023-02-11T06:07:57;100806.78;;;-0.13
60615;BMP280;46444;45.590;5.284;2023-02-11T06:10:48;100799.16;;;-0.16
60615;BMP280;46444;45.590;5.284;2023-02-11T06:13:44;100808.59;;;-0.13
60615;BMP280;46444;45.590;5.284;2023-02-11T06:16:32;100805.47;;;-0.18
60615;BMP280;46444;45.590;5.284;2023-02-11T06:19:14;100799.16;;;-0.16
60615;BMP280;46444;45.590;5.284;2023-02-11T06:21:55;100802.16;;;-0.20
60615;BMP280;46444;45.590;5.284;2023-02-11T06:24:28;100803.44;;;-0.15
60615;BMP280;46444;45.590;5.284;2023-02-11T06:26:55;100799.97;;;-0.16
60615;BMP280;46444;45.590;5.284;2023-02-11T06:29:34;100787.69;;;-0.26
60615;BMP280;46444;45.590;5.284;2023-02-11T06:33:03;100803.34;;;-0.13
60615;BMP280;46444;45.590;5.284;2023-02-11T06:36:52;100804.88;;;-0.33
60615;BMP280;46444;45.590;5.284;2023-02-11T06:39:21;100807.50;;;-0.22
60615;BMP280;46444;45.590;5.284;2023-02-11T06:41:49;100797.22;;;-0.14
60615;BMP280;46444;45.590;5.284;2023-02-11T06:44:15;100803.81;;;-0.19
60615;BMP280;46444;45.590;5.284;2023-02-11T06:46:49;100811.69;;;-0.08
60615;BMP280;46444;45.590;5.284;2023-02-11T06:49:36;100812.19;;;-0.14
60615;BMP280;46444;45.590;5.284;2023-02-11T06:52:02;100814.91;;;-0.16
60615;BMP280;46444;45.590;5.284;2023-02-11T06:54:33;100812.78;;;-0.22
60615;BMP280;46444;45.590;5.284;2023-02-11T06:56:59;100811.91;;;-0.33
60615;BMP280;46444;45.590;5.284;2023-02-11T06:59:26;100814.81;;;-0.25
60615;BMP280;46444;45.590;5.284;2023-02-11T07:01:51;100817.19;;;-0.22
60615;BMP280;46444;45.590;5.284;2023-02-11T07:04:17;100812.19;;;-0.14
60615;BMP280;46444;45.590;5.284;2023-02-11T07:06:42;100815.50;;;-0.13
60615;BMP280;46444;45.590;5.284;2023-02-11T07:09:09;100821.47;;;-0.22
60615;BMP280;46444;45.590;5.284;2023-02-11T07:11:35;100829.34;;;-0.11
60615;BMP280;46444;45.590;5.284;2023-02-11T07:14:05;100836.28;;;-0.10
60615;BMP280;46444;45.590;5.284;2023-02-11T07:16:33;100840.94;;;-0.13
60615;BMP280;46444;45.590;5.284;2023-02-11T07:18:58;100837.34;;;-0.12
60615;BMP280;46444;45.590;5.284;2023-02-11T07:21:24;100843.09;;;-0.18
60615;BMP280;46444;45.590;5.284;2023-02-11T07:23:50;100842.88;;;-0.15
60615;BMP280;46444;45.590;5.284;2023-02-11T07:26:21;100846.31;;;-0.04
60615;BMP280;46444;45.590;5.284;2023-02-11T07:28:48;100855.63;;;-0.11
60615;BMP280;46444;45.590;5.284;2023-02-11T07:31:25;100862.56;;;-0.10
60615;BMP280;46444;45.590;5.284;2023-02-11T07:33:52;100856.81;;;-0.04
60615;BMP280;46444;45.590;5.284;2023-02-11T07:36:19;100851.34;;;-0.01
60615;BMP280;46444;45.590;5.284;2023-02-11T07:38:45;100857.91;;;0.05
60615;BMP280;46444;45.590;5.284;2023-02-11T07:41:14;100867.13;;;-0.01
60615;BMP280;46444;45.590;5.284;2023-02-11T07:43:40;100869.97;;;0.07
60615;BMP280;46444;45.590;5.284;2023-02-11T07:46:12;100869.50;;;0.13
60615;BMP280;46444;45.590;5.284;2023-02-11T07:48:38;100869.97;;;0.07
60615;BMP280;46444;45.590;5.284;2023-02-11T07:51:11;100876.19;;;0.17
60615;BMP280;46444;45.590;5.284;2023-02-11T07:53:37;100890.03;;;0.19
60615;BMP280;46444;45.590;5.284;2023-02-11T07:56:04;100881.44;;;0.28
60615;BMP280;46444;45.590;5.284;2023-02-11T07:58:30;100885.75;;;0.29
60615;BMP280;46444;45.590;5.284;2023-02-11T08:01:00;100880.97;;;0.34
60615;BMP280;46444;45.590;5.284;2023-02-11T08:03:26;100890.03;;;0.41
60615;BMP280;46444;45.590;5.284;2023-02-11T08:05:51;100894.34;;;0.42
60615;BMP280;46444;45.590;5.284;2023-02-11T08:08:17;100891.22;;;0.48
60615;BMP280;46444;45.590;5.284;2023-02-11T08:10:42;100882.84;;;0.54
60615;BMP280;46444;45.590;5.284;2023-02-11T08:13:07;100893.00;;;0.59
60615;BMP280;46444;45.590;5.284;2023-02-11T08:15:33;100889.75;;;0.66
60615;BMP280;46444;45.590;5.284;2023-02-11T08:17:58;100896.94;;;0.64
60615;BMP280;46444;45.590;5.284;2023-02-11T08:20:23;100900.13;;;0.79
60615;BMP280;46444;45.590;5.284;2023-02-11T08:22:49;100898.22;;;0.81
60615;BMP280;46444;45.590;5.284;2023-02-11T08:25:14;100903.25;;;0.84
60615;BMP280;46444;45.590;5.284;2023-02-11T08:27:39;100904.03;;;0.95
60615;BMP280;46444;45.590;5.284;2023-02-11T08:30:05;100906.66;;;0.95
60615;BMP280;46444;45.590;5.284;2023-02-11T08:32:33;100899.81;;;1.04
60615;BMP280;46444;45.590;5.284;2023-02-11T08:34:59;100909.97;;;1.08
60615;BMP280;46444;45.590;5.284;2023-02-11T08:37:24;100912.38;;;1.11
60615;BMP280;46444;45.590;5.284;2023-02-11T08:39:50;100903.13;;;1.17
60615;BMP280;46444;45.590;5.284;2023-02-11T08:42:15;100909.44;;;1.25
60615;BMP280;46444;45.590;5.284;2023-02-11T08:44:41;100895.88;;;1.30
60615;BMP280;46444;45.590;5.284;2023-02-11T08:47:07;100895.38;;;1.36
60615;BMP280;46444;45.590;5.284;2023-02-11T08:49:32;100889.28;;;1.35
60615;BMP280;46444;45.590;5.284;2023-02-11T08:51:58;100892.09;;;1.43
60615;BMP280;46444;45.590;5.284;2023-02-11T08:54:28;100891.84;;;1.46
60615;BMP280;46444;45.590;5.284;2023-02-11T08:56:53;100894.56;;;1.56
60615;BMP280;46444;45.590;5.284;2023-02-11T08:59:19;100895.25;;;1.58
60615;BMP280;46444;45.590;5.284;2023-02-11T09:01:44;100893.88;;;1.63
60615;BMP280;46444;45.590;5.284;2023-02-11T09:04:12;100890.72;;;1.69
60615;BMP280;46444;45.590;5.284;2023-02-11T09:06:37;100901.88;;;1.73
60615;BMP280;46444;45.590;5.284;2023-02-11T09:09:03;100885.41;;;1.80
60615;BMP280;46444;45.590;5.284;2023-02-11T09:11:34;100888.22;;;1.88
60615;BMP280;46444;45.590;5.284;2023-02-11T09:14:00;100882.16;;;1.97
60615;BMP280;46444;45.590;5.284;2023-02-11T09:16:29;100883.31;;;2.04
60615;BMP280;46444;45.590;5.284;2023-02-11T09:18:56;100894.56;;;2.06
60615;BMP280;46444;45.590;5.284;2023-02-11T09:21:21;100887.22;;;2.10
60615;BMP280;46444;45.590;5.284;2023-02-11T09:23:47;100894.50;;;2.17
60615;BMP280;46444;45.590;5.284;2023-02-11T09:28:40;100886.31;;;2.30
60615;BMP280;46444;45.590;5.284;2023-02-11T09:31:07;100885.66;;;2.37
60615;BMP280;46444;45.590;5.284;2023-02-11T09:33:32;100878.19;;;2.42
60615;BMP280;46444;45.590;5.284;2023-02-11T09:36:04;100892.06;;;2.44
60615;BMP280;46444;45.590;5.284;2023-02-11T09:38:30;100878.09;;;2.53
60615;BMP280;46444;45.590;5.284;2023-02-11T09:40:56;100874.63;;;2.62
60615;BMP280;46444;45.590;5.284;2023-02-11T09:43:35;100877.69;;;2.67
60615;BMP280;46444;45.590;5.284;2023-02-11T09:46:03;100880.78;;;2.72
60615;BMP280;46444;45.590;5.284;2023-02-11T09:48:37;100886.88;;;2.82
60615;BMP280;46444;45.590;5.284;2023-02-11T09:51:05;100887.72;;;2.83
60615;BMP280;46444;45.590;5.284;2023-02-11T09:53:40;100882.19;;;2.86
60615;BMP280;46444;45.590;5.284;2023-02-11T09:56:14;100887.59;;;2.94
60615;BMP280;46444;45.590;5.284;2023-02-11T09:58:43;100881.47;;;3.03
60615;BMP280;46444;45.590;5.284;2023-02-11T10:01:20;100888.03;;;3.08
60615;BMP280;46444;45.590;5.284;2023-02-11T10:20:24;100892.22;;;3.39
60615;BMP280;46444;45.590;5.284;2023-02-11T10:22:58;100885.50;;;3.45
60615;BMP280;46444;45.590;5.284;2023-02-11T10:25:42;100886.34;;;3.45
60615;BMP280;46444;45.590;5.284;2023-02-11T10:28:12;100899.56;;;3.55
60615;BMP280;46444;45.590;5.284;2023-02-11T10:30:47;100894.69;;;3.60
60615;BMP280;46444;45.590;5.284;2023-02-11T10:33:24;100892.72;;;3.62
60615;BMP280;46444;45.590;5.284;2023-02-11T10:35:51;100882.88;;;3.64
60615;BMP280;46444;45.590;5.284;2023-02-11T10:38:16;100896.34;;;3.70
60615;BMP280;46444;45.590;5.284;2023-02-11T10:40:41;100889.66;;;3.76
60615;BMP280;46444;45.590;5.284;2023-02-11T10:43:11;100888.94;;;3.83
60615;BMP280;46444;45.590;5.284;2023-02-11T10:45:43;100892.69;;;3.90
60615;BMP280;46444;45.590;5.284;2023-02-11T10:48:48;100889.88;;;3.92
60615;BMP280;46444;45.590;5.284;2023-02-11T10:51:24;100900.31;;;3.93
60615;BMP280;46444;45.590;5.284;2023-02-11T10:56:40;100890.56;;;4.03
60615;BMP280;46444;45.590;5.284;2023-02-11T11:01:57;100885.09;;;4.14
60615;BMP280;46444;45.590;5.284;2023-02-11T11:07:18;100878.66;;;4.26
60615;BMP280;46444;45.590;5.284;2023-02-11T11:09:51;100875.09;;;4.35
60615;BMP280;46444;45.590;5.284;2023-02-11T11:15:23;100862.66;;;4.45
60615;BMP280;46444;45.590;5.284;2023-02-11T11:17:52;100860.69;;;4.47
60615;BMP280;46444;45.590;5.284;2023-02-11T11:20:32;100854.53;;;4.56
60615;BMP280;46444;45.590;5.284;2023-02-11T11:23:21;100856.41;;;4.64
60615;BMP280;46444;45.590;5.284;2023-02-11T11:26:12;100848.31;;;4.65
60615;BMP280;46444;45.590;5.284;2023-02-11T11:31:13;100832.88;;;4.78
60615;BMP280;46444;45.590;5.284;2023-02-11T11:33:41;100835.94;;;4.83
60615;BMP280;46444;45.590;5.284;2023-02-11T11:36:10;100825.03;;;4.86
60615;BMP280;46444;45.590;5.284;2023-02-11T11:38:48;100821.78;;;4.92
60615;BMP280;46444;45.590;5.284;2023-02-11T11:41:32;100818.81;;;4.95
60615;BMP280;46444;45.590;5.284;2023-02-11T11:46:32;100803.38;;;5.08
60615;BMP280;46444;45.590;5.284;2023-02-11T11:49:27;100799.44;;;5.12
60615;BMP280;46444;45.590;5.284;2023-02-11T11:54:42;100798.81;;;5.18
60615;BMP280;46444;45.590;5.284;2023-02-11T11:57:14;100798.59;;;5.29
60615;BMP280;46444;45.590;5.284;2023-02-11T11:59:40;100795.59;;;5.32
60615;BMP280;46444;45.590;5.284;2023-02-11T12:05:24;100793.41;;;5.45
60615;BMP280;46444;45.590;5.284;2023-02-11T12:07:59;100785.44;;;5.45
60615;BMP280;46444;45.590;5.284;2023-02-11T12:11:01;100778.19;;;5.55
60615;BMP280;46444;45.590;5.284;2023-02-11T12:13:41;100776.88;;;5.51
60615;BMP280;46444;45.590;5.284;2023-02-11T12:21:51;100769.69;;;5.69
60615;BMP280;46444;45.590;5.284;2023-02-11T12:30:18;100770.00;;;6.00
60615;BMP280;46444;45.590;5.284;2023-02-11T12:40:49;100751.97;;;7.87
60615;BMP280;46444;45.590;5.284;2023-02-11T12:45:51;100729.31;;;9.85
60615;BMP280;46444;45.590;5.284;2023-02-11T12:48:46;100719.19;;;10.45
60615;BMP280;46444;45.590;5.284;2023-02-11T12:54:17;100705.41;;;12.00
60615;BMP280;46444;45.590;5.284;2023-02-11T13:02:03;100696.56;;;13.64
60615;BMP280;46444;45.590;5.284;2023-02-11T13:07:08;100685.81;;;14.27
60615;BMP280;46444;45.590;5.284;2023-02-11T13:09:43;100689.03;;;15.29
60615;BMP280;46444;45.590;5.284;2023-02-11T13:12:11;100682.13;;;15.15
60615;BMP280;46444;45.590;5.284;2023-02-11T13:15:01;100674.41;;;15.43
60615;BMP280;46444;45.590;5.284;2023-02-11T13:17:52;100672.63;;;15.55
60615;BMP280;46444;45.590;5.284;2023-02-11T13:20:33;100655.97;;;16.30
60615;BMP280;46444;45.590;5.284;2023-02-11T13:23:18;100661.47;;;15.87
60615;BMP280;46444;45.590;5.284;2023-02-11T13:25:58;100656.16;;;16.76
60615;BMP280;46444;45.590;5.284;2023-02-11T13:31:09;100642.16;;;16.67
60615;BMP280;46444;45.590;5.284;2023-02-11T13:33:38;100640.56;;;17.12
60615;BMP280;46444;45.590;5.284;2023-02-11T13:38:32;100627.66;;;17.60
60615;BMP280;46444;45.590;5.284;2023-02-11T13:44:25;100622.63;;;17.92
60615;BMP280;46444;45.590;5.284;2023-02-11T13:47:03;100614.41;;;17.87
60615;BMP280;46444;45.590;5.284;2023-02-11T13:49:37;100607.81;;;18.50
60615;BMP280;46444;45.590;5.284;2023-02-11T13:52:16;100597.72;;;18.62
60615;BMP280;46444;45.590;5.284;2023-02-11T13:54:47;100598.47;;;18.58
60615;BMP280;46444;45.590;5.284;2023-02-11T13:57:22;100599.47;;;18.52
60615;BMP280;46444;45.590;5.284;2023-02-11T13:59:55;100592.91;;;18.64
60615;BMP280;46444;45.590;5.284;2023-02-11T14:08:12;100577.41;;;18.60
60615;BMP280;46444;45.590;5.284;2023-02-11T14:13:31;100573.88;;;18.76
60615;BMP280;46444;45.590;5.284;2023-02-11T14:23:52;100578.16;;;19.42
60615;BMP280;46444;45.590;5.284;2023-02-11T14:28:49;100582.25;;;18.91
60615;BMP280;46444;45.590;5.284;2023-02-11T14:34:29;100577.66;;;18.58
60615;BMP280;46444;45.590;5.284;2023-02-11T14:43:23;100574.88;;;17.58
60615;BMP280;46444;45.590;5.284;2023-02-11T14:45:52;100569.53;;;16.07
60615;BMP280;46444;45.590;5.284;2023-02-11T14:48:21;100571.22;;;16.60
60615;BMP280;46444;45.590;5.284;2023-02-11T14:50:53;100568.72;;;16.06
60615;BMP280;46444;45.590;5.284;2023-02-11T14:53:23;100568.63;;;15.83
60615;BMP280;46444;45.590;5.284;2023-02-11T14:55:51;100573.59;;;15.98
60615;BMP280;46444;45.590;5.284;2023-02-11T15:03:36;100568.47;;;15.06
60615;BMP280;46444;45.590;5.284;2023-02-11T15:06:21;100566.00;;;15.05
60615;BMP280;46444;45.590;5.284;2023-02-11T15:08:53;100577.31;;;14.89
60615;BMP280;46444;45.590;5.284;2023-02-11T15:11:21;100571.00;;;14.77
60615;BMP280;46444;45.590;5.284;2023-02-11T15:13:48;100582.53;;;14.35
60615;BMP280;46444;45.590;5.284;2023-02-11T15:16:24;100588.53;;;13.42
60615;BMP280;46444;45.590;5.284;2023-02-11T15:19:00;100583.91;;;13.62
60615;BMP280;46444;45.590;5.284;2023-02-11T15:21:28;100583.50;;;13.59
60615;BMP280;46444;45.590;5.284;2023-02-11T15:24:21;100575.56;;;13.26
60615;BMP280;46444;45.590;5.284;2023-02-11T15:29:40;100580.78;;;12.76
60615;BMP280;46444;45.590;5.284;2023-02-11T15:32:11;100574.78;;;13.06
60615;BMP280;46444;45.590;5.284;2023-02-11T15:34:38;100564.50;;;12.51
60615;BMP280;46444;45.590;5.284;2023-02-11T15:37:05;100573.53;;;12.18
60615;BMP280;46444;45.590;5.284;2023-02-11T15:39:38;100581.22;;;12.60
60615;BMP280;46444;45.590;5.284;2023-02-11T15:42:27;100573.16;;;12.60
60615;BMP280;46444;45.590;5.284;2023-02-11T15:47:47;100581.28;;;11.80
60615;BMP280;46444;45.590;5.284;2023-02-11T15:50:28;100574.28;;;11.86
60615;BMP280;46444;45.590;5.284;2023-02-11T15:52:55;100580.50;;;11.46
60615;BMP280;46444;45.590;5.284;2023-02-11T15:55:21;100578.50;;;11.20
60615;BMP280;46444;45.590;5.284;2023-02-11T15:57:53;100587.38;;;10.93
60615;BMP280;46444;45.590;5.284;2023-02-11T16:00:21;100581.03;;;11.01
60615;BMP280;46444;45.590;5.284;2023-02-11T16:02:48;100585.19;;;11.03
60615;BMP280;46444;45.590;5.284;2023-02-11T16:05:31;100587.78;;;10.90
60615;BMP280;46444;45.590;5.284;2023-02-11T16:07:59;100589.66;;;10.69
60615;BMP280;46444;45.590;5.284;2023-02-11T16:10:33;100589.94;;;10.53
60615;BMP280;46444;45.590;5.284;2023-02-11T16:15:29;100591.97;;;10.30
60615;BMP280;46444;45.590;5.284;2023-02-11T16:17:55;100587.66;;;10.29
60615;BMP280;46444;45.590;5.284;2023-02-11T16:20:21;100590.47;;;10.21
60615;BMP280;46444;45.590;5.284;2023-02-11T16:22:46;100590.72;;;10.05
60615;BMP280;46444;45.590;5.284;2023-02-11T16:25:19;100588.75;;;10.13
60615;BMP280;46444;45.590;5.284;2023-02-11T16:27:50;100591.66;;;9.83
60615;BMP280;46444;45.590;5.284;2023-02-11T16:30:36;100590.63;;;9.84
60615;BMP280;46444;45.590;5.284;2023-02-11T16:33:03;100588.09;;;9.76
60615;BMP280;46444;45.590;5.284;2023-02-11T16:35:29;100594.59;;;9.88
60615;BMP280;46444;45.590;5.284;2023-02-11T16:37:55;100588.72;;;9.78
60615;BMP280;46444;45.590;5.284;2023-02-11T16:40:20;100586.72;;;9.65
60615;BMP280;46444;45.590;5.284;2023-02-11T16:42:47;100595.13;;;9.48
60615;BMP280;46444;45.590;5.284;2023-02-11T16:45:13;100589.25;;;9.52
60615;BMP280;46444;45.590;5.284;2023-02-11T16:48:16;100603.88;;;9.42
60615;BMP280;46444;45.590;5.284;2023-02-11T16:53:33;100597.72;;;9.41
60615;BMP280;46444;45.590;5.284;2023-02-11T16:56:46;100604.34;;;9.16
60615;BMP280;46444;45.590;5.284;2023-02-11T16:59:14;100599.81;;;9.02
60615;BMP280;46444;45.590;5.284;2023-02-11T17:01:46;100609.59;;;9.10
60615;BMP280;46444;45.590;5.284;2023-02-11T17:04:24;100609.28;;;8.90
60615;BMP280;46444;45.590;5.284;2023-02-11T17:06:49;100613.56;;;8.77
60615;BMP280;46444;45.590;5.284;2023-02-11T17:09:21;100608.66;;;8.52
60615;BMP280;46444;45.590;5.284;2023-02-11T17:11:54;100619.56;;;8.42
60615;BMP280;46444;45.590;5.284;2023-02-11T17:14:22;100616.22;;;8.40
60615;BMP280;46444;45.590;5.284;2023-02-11T17:16:48;100621.53;;;8.18
60615;BMP280;46444;45.590;5.284;2023-02-11T17:19:16;100615.13;;;8.04
60615;BMP280;46444;45.590;5.284;2023-02-11T17:21:49;100619.34;;;7.91
60615;BMP280;46444;45.590;5.284;2023-02-11T17:24:20;100612.59;;;7.80
60615;BMP280;46444;45.590;5.284;2023-02-11T17:26:48;100617.81;;;7.74
60615;BMP280;46444;45.590;5.284;2023-02-11T17:29:20;100625.00;;;7.65
60615;BMP280;46444;45.590;5.284;2023-02-11T17:31:47;100635.03;;;7.55
60615;BMP280;46444;45.590;5.284;2023-02-11T17:34:13;100631.03;;;7.51
60615;BMP280;46444;45.590;5.284;2023-02-11T17:36:40;100634.75;;;7.42
60615;BMP280;46444;45.590;5.284;2023-02-11T17:39:09;100628.13;;;7.30
60615;BMP280;46444;45.590;5.284;2023-02-11T17:41:59;100628.81;;;7.16
60615;BMP280;46444;45.590;5.284;2023-02-11T17:45:08;100624.53;;;7.07
60615;BMP280;46444;45.590;5.284;2023-02-11T17:48:17;100639.66;;;6.99
60615;BMP280;46444;45.590;5.284;2023-02-11T17:50:45;100638.00;;;6.90
60615;BMP280;46444;45.590;5.284;2023-02-11T17:53:16;100630.56;;;6.77
60615;BMP280;46444;45.590;5.284;2023-02-11T17:55:42;100640.88;;;6.72
60615;BMP280;46444;45.590;5.284;2023-02-11T17:58:13;100633.56;;;6.58
60615;BMP280;46444;45.590;5.284;2023-02-11T18:00:57;100634.91;;;6.54
60615;BMP280;46444;45.590;5.284;2023-02-11T18:03:25;100638.53;;;6.45
60615;BMP280;46444;45.590;5.284;2023-02-11T18:05:51;100637.88;;;6.35
60615;BMP280;46444;45.590;5.284;2023-02-11T18:08:25;100639.19;;;6.31
60615;BMP280;46444;45.590;5.284;2023-02-11T18:10:54;100644.00;;;6.28
60615;BMP280;46444;45.590;5.284;2023-02-11T18:13:26;100644.00;;;6.20
60615;BMP280;46444;45.590;5.284;2023-02-11T18:16:18;100639.81;;;6.09
60615;BMP280;46444;45.590;5.284;2023-02-11T18:18:55;100645.78;;;6.03
60615;BMP280;46444;45.590;5.284;2023-02-11T18:21:40;100644.28;;;6.01
60615;BMP280;46444;45.590;5.284;2023-02-11T18:24:06;100650.41;;;5.93
60615;BMP280;46444;45.590;5.284;2023-02-11T18:26:33;100647.41;;;5.80
60615;BMP280;46444;45.590;5.284;2023-02-11T18:29:10;100649.34;;;5.78
60615;BMP280;46444;45.590;5.284;2023-02-11T18:31:46;100654.28;;;5.73
60615;BMP280;46444;45.590;5.284;2023-02-11T18:34:12;100656.56;;;5.60
60615;BMP280;46444;45.590;5.284;2023-02-11T18:36:47;100660.22;;;5.59
60615;BMP280;46444;45.590;5.284;2023-02-11T18:39:20;100660.84;;;5.53
60615;BMP280;46444;45.590;5.284;2023-02-11T18:42:11;100655.84;;;5.50
60615;BMP280;46444;45.590;5.284;2023-02-11T18:45:10;100663.41;;;5.37
60615;BMP280;46444;45.590;5.284;2023-02-11T18:48:05;100655.91;;;5.25
60615;BMP280;46444;45.590;5.284;2023-02-11T18:51:46;100666.28;;;5.18
60615;BMP280;46444;45.590;5.284;2023-02-11T18:54:54;100671.09;;;5.15
60615;BMP280;46444;45.590;5.284;2023-02-11T19:00:19;100673.97;;;5.04
60615;BMP280;46444;45.590;5.284;2023-02-11T19:02:45;100680.06;;;4.96
60615;BMP280;46444;45.590;5.284;2023-02-11T19:05:52;100669.72;;;4.85
60615;BMP280;46444;45.590;5.284;2023-02-11T19:08:41;100668.53;;;4.80
60615;BMP280;46444;45.590;5.284;2023-02-11T19:11:36;100673.16;;;4.78
60615;BMP280;46444;45.590;5.284;2023-02-11T19:14:17;100670.28;;;4.71
60615;BMP280;46444;45.590;5.284;2023-02-11T19:17:15;100682.69;;;4.71
60615;BMP280;46444;45.590;5.284;2023-02-11T19:19:46;100677.16;;;4.64
60615;BMP280;46444;45.590;5.284;2023-02-11T19:22:33;100673.47;;;4.57
60615;BMP280;46444;45.590;5.284;2023-02-11T19:25:16;100676.41;;;4.54
60615;BMP280;46444;45.590;5.284;2023-02-11T19:28:20;100686.28;;;4.44
60615;BMP280;46444;45.590;5.284;2023-02-11T19:31:10;100676.56;;;4.35
60615;BMP280;46444;45.590;5.284;2023-02-11T19:34:31;100684.22;;;4.38
60615;BMP280;46444;45.590;5.284;2023-02-11T19:40:23;100675.59;;;4.36
60615;BMP280;46444;45.590;5.284;2023-02-11T19:43:07;100673.47;;;4.22
60615;BMP280;46444;45.590;5.284;2023-02-11T19:49:34;100666.38;;;4.23
60615;BMP280;46444;45.590;5.284;2023-02-11T19:51:59;100678.63;;;4.24
60615;BMP280;46444;45.590;5.284;2023-02-11T19:54:26;100679.66;;;4.13
60615;BMP280;46444;45.590;5.284;2023-02-11T19:57:20;100670.06;;;4.12